N422DA KISM-KFIN
Flight info
| Callsign | N422DA |
|---|---|
| Flight time | N/A |
| Altitude | 4500 |
| Route | / |
| Aircraft | DA42/L-SDFGRY/C |
Departure
| Time | 2026-05-01 14:34 |
|---|---|
| Airport | Kissimmee Gateway Airport (KISM) |
Arrival
| Time | N/A |
|---|---|
| Airport | Flagler Executive Airport (KFIN) |
| Time | Latitude | Longitude | Altitude | Speed | Heading |
|---|---|---|---|---|---|
| 2026-05-01 14:17 | 28.29442 | -81.43445 | 87 ft | 0 kts | 93° |
| 2026-05-01 14:28 | 28.29396 | -81.43374 | 87 ft | 10 kts | 90° |
| 2026-05-01 14:28 | 28.29433 | -81.43289 | 89 ft | 13 kts | 59° |
| 2026-05-01 14:28 | 28.29472 | -81.43216 | 90 ft | 8 kts | 58° |
| 2026-05-01 14:28 | 28.29491 | -81.43172 | 91 ft | 0 kts | 84° |
| 2026-05-01 14:30 | 28.29485 | -81.43147 | 93 ft | 0 kts | 136° |
| 2026-05-01 14:30 | 28.29478 | -81.43141 | 92 ft | 0 kts | 148° |
| 2026-05-01 14:31 | 28.29465 | -81.43132 | 91 ft | 6 kts | 151° |
| 2026-05-01 14:32 | 28.29412 | -81.43105 | 91 ft | 11 kts | 184° |
| 2026-05-01 14:32 | 28.29398 | -81.43115 | 91 ft | 0 kts | 237° |
| 2026-05-01 14:33 | 28.29395 | -81.43122 | 91 ft | 12 kts | 238° |
| 2026-05-01 14:33 | 28.29226 | -81.43422 | 92 ft | 71 kts | 239° |
| 2026-05-01 14:33 | 28.28926 | -81.43968 | 244 ft | 87 kts | 238° |
| 2026-05-01 14:34 | 28.28568 | -81.44547 | 537 ft | 92 kts | 236° |
| 2026-05-01 14:34 | 28.28315 | -81.45214 | 802 ft | 94 kts | 259° |
| 2026-05-01 14:34 | 28.28378 | -81.45907 | 1041 ft | 88 kts | 298° |
| 2026-05-01 14:34 | 28.28853 | -81.46401 | 1195 ft | 99 kts | 323° |
| 2026-05-01 14:35 | 28.29460 | -81.46855 | 1320 ft | 106 kts | 326° |
| 2026-05-01 14:35 | 28.30141 | -81.47177 | 1414 ft | 110 kts | 336° |
| 2026-05-01 14:35 | 28.30857 | -81.47463 | 1539 ft | 108 kts | 339° |
| 2026-05-01 14:35 | 28.31600 | -81.47662 | 1540 ft | 109 kts | 352° |
| 2026-05-01 14:36 | 28.32374 | -81.47705 | 1626 ft | 110 kts | 353° |
| 2026-05-01 14:36 | 28.33113 | -81.47771 | 1744 ft | 106 kts | 351° |
| 2026-05-01 14:36 | 28.33852 | -81.47894 | 1841 ft | 106 kts | 348° |
| 2026-05-01 14:36 | 28.34565 | -81.47963 | 2010 ft | 102 kts | 356° |
| 2026-05-01 14:37 | 28.35285 | -81.47949 | 2125 ft | 103 kts | 355° |
| 2026-05-01 14:37 | 28.36036 | -81.48013 | 2183 ft | 109 kts | 358° |
| 2026-05-01 14:37 | 28.36788 | -81.48008 | 2210 ft | 109 kts | 359° |
| 2026-05-01 14:37 | 28.37551 | -81.47926 | 2363 ft | 112 kts | 359° |
| 2026-05-01 14:38 | 28.38328 | -81.47885 | 2442 ft | 114 kts | 2° |
| 2026-05-01 14:38 | 28.39118 | -81.47837 | 2562 ft | 114 kts | 353° |
| 2026-05-01 14:38 | 28.39901 | -81.47877 | 2690 ft | 114 kts | 1° |
| 2026-05-01 14:38 | 28.40702 | -81.47773 | 2758 ft | 119 kts | 9° |
| 2026-05-01 14:39 | 28.41512 | -81.47562 | 2865 ft | 121 kts | 12° |
| 2026-05-01 14:39 | 28.42312 | -81.47272 | 3037 ft | 121 kts | 17° |
| 2026-05-01 14:39 | 28.43125 | -81.46950 | 3083 ft | 126 kts | 14° |
| 2026-05-01 14:39 | 28.43986 | -81.46781 | 3229 ft | 126 kts | 6° |
| 2026-05-01 14:40 | 28.44871 | -81.46579 | 3242 ft | 133 kts | 15° |
| 2026-05-01 14:40 | 28.45775 | -81.46327 | 3290 ft | 133 kts | 9° |
| 2026-05-01 14:40 | 28.46694 | -81.46176 | 3357 ft | 133 kts | 4° |
| 2026-05-01 14:40 | 28.47615 | -81.46039 | 3429 ft | 131 kts | 12° |
| 2026-05-01 14:41 | 28.48472 | -81.45794 | 3566 ft | 127 kts | 11° |
| 2026-05-01 14:41 | 28.49372 | -81.45544 | 3451 ft | 142 kts | 14° |
| 2026-05-01 14:41 | 28.50343 | -81.45281 | 3489 ft | 141 kts | 13° |
| 2026-05-01 14:41 | 28.51292 | -81.44988 | 3468 ft | 140 kts | 14° |
| 2026-05-01 14:42 | 28.52224 | -81.44686 | 3438 ft | 140 kts | 13° |
| 2026-05-01 14:42 | 28.53174 | -81.44409 | 3374 ft | 142 kts | 9° |
| 2026-05-01 14:42 | 28.54133 | -81.44224 | 3325 ft | 138 kts | 9° |
| 2026-05-01 14:42 | 28.55064 | -81.44005 | 3354 ft | 135 kts | 13° |
| 2026-05-01 14:43 | 28.55967 | -81.43691 | 3312 ft | 139 kts | 18° |
| 2026-05-01 14:43 | 28.56881 | -81.43310 | 3247 ft | 138 kts | 19° |
| 2026-05-01 14:43 | 28.57748 | -81.42865 | 3229 ft | 136 kts | 30° |
| 2026-05-01 14:43 | 28.58507 | -81.42241 | 3275 ft | 134 kts | 39° |
| 2026-05-01 14:44 | 28.59233 | -81.41571 | 3283 ft | 135 kts | 40° |
| 2026-05-01 14:44 | 28.60592 | -81.40193 | 3391 ft | 127 kts | 37° |
| 2026-05-01 14:44 | 28.61220 | -81.39506 | 3466 ft | 127 kts | 50° |
| 2026-05-01 14:45 | 28.61861 | -81.38771 | 3452 ft | 129 kts | 43° |
| 2026-05-01 14:45 | 28.63308 | -81.37663 | 3582 ft | 120 kts | 22° |
| 2026-05-01 14:45 | 28.64086 | -81.37446 | 3622 ft | 116 kts | 18° |
| 2026-05-01 14:46 | 28.64819 | -81.37065 | 3452 ft | 109 kts | 21° |
| 2026-05-01 14:46 | 28.66296 | -81.36503 | 3305 ft | 115 kts | 9° |
| 2026-05-01 14:46 | 28.67097 | -81.36474 | 3232 ft | 117 kts | 359° |
| 2026-05-01 14:47 | 28.67874 | -81.36305 | 3174 ft | 111 kts | 38° |
| 2026-05-01 14:47 | 28.67975 | -81.35548 | 3026 ft | 106 kts | 124° |
| 2026-05-01 14:47 | 28.67377 | -81.35223 | 3072 ft | 98 kts | 198° |
| 2026-05-01 14:48 | 28.67315 | -81.36530 | 3088 ft | 113 kts | 332° |
| 2026-05-01 14:48 | 28.68130 | -81.36488 | 3036 ft | 122 kts | 12° |
| 2026-05-01 14:48 | 28.69740 | -81.36259 | 2778 ft | 130 kts | 71° |
| 2026-05-01 14:49 | 28.68876 | -81.34685 | 2879 ft | 106 kts | 138° |
| 2026-05-01 14:49 | 28.67601 | -81.34210 | 3042 ft | 100 kts | 203° |
| 2026-05-01 14:50 | 28.67250 | -81.35129 | 3055 ft | 116 kts | 288° |
| 2026-05-01 14:50 | 28.69118 | -81.35364 | 3109 ft | 127 kts | 55° |
| 2026-05-01 14:51 | 28.69127 | -81.34438 | 3063 ft | 129 kts | 130° |
| 2026-05-01 14:51 | 28.67609 | -81.33406 | 3047 ft | 129 kts | 151° |
| 2026-05-01 14:52 | 28.66019 | -81.32543 | 3012 ft | 129 kts | 168° |
| 2026-05-01 14:52 | 28.65438 | -81.32438 | 3007 ft | 127 kts | 178° |
| 2026-05-01 14:52 | 28.64987 | -81.31053 | 2903 ft | 141 kts | 46° |
| 2026-05-01 14:53 | 28.65787 | -81.30507 | 2979 ft | 134 kts | 18° |
| 2026-05-01 14:53 | 28.66698 | -81.30280 | 2955 ft | 135 kts | 6° |
| 2026-05-01 14:53 | 28.67623 | -81.30151 | 2989 ft | 131 kts | 9° |
| 2026-05-01 14:53 | 28.68475 | -81.29869 | 3064 ft | 126 kts | 16° |
| 2026-05-01 14:54 | 28.69349 | -81.29619 | 3055 ft | 128 kts | 6° |
| 2026-05-01 14:54 | 28.70211 | -81.29408 | 3127 ft | 125 kts | 15° |
| 2026-05-01 14:54 | 28.71007 | -81.29014 | 3167 ft | 125 kts | 35° |
| 2026-05-01 14:54 | 28.71771 | -81.28522 | 3148 ft | 127 kts | 22° |
| 2026-05-01 14:55 | 28.72599 | -81.28173 | 3146 ft | 127 kts | 16° |
| 2026-05-01 14:55 | 28.73445 | -81.27915 | 3143 ft | 125 kts | 1° |
| 2026-05-01 14:55 | 28.74231 | -81.28237 | 3148 ft | 122 kts | 314° |
| 2026-05-01 14:55 | 28.74724 | -81.29038 | 3141 ft | 124 kts | 299° |
| 2026-05-01 14:56 | 28.75163 | -81.29884 | 3141 ft | 124 kts | 299° |
| 2026-05-01 14:56 | 28.75606 | -81.30723 | 3140 ft | 124 kts | 300° |
| 2026-05-01 14:56 | 28.76057 | -81.31562 | 3141 ft | 128 kts | 300° |
| 2026-05-01 14:56 | 28.76506 | -81.32415 | 3140 ft | 123 kts | 298° |
| 2026-05-01 14:57 | 28.76932 | -81.33232 | 3133 ft | 117 kts | 298° |
| 2026-05-01 14:57 | 28.77938 | -81.34705 | 3136 ft | 124 kts | 327° |
| 2026-05-01 14:57 | 28.78754 | -81.35046 | 3137 ft | 128 kts | 351° |
| 2026-05-01 14:58 | 28.79647 | -81.34981 | 3142 ft | 130 kts | 9° |
| 2026-05-01 14:58 | 28.80551 | -81.34804 | 3145 ft | 133 kts | 9° |
| 2026-05-01 14:58 | 28.81469 | -81.34629 | 3134 ft | 134 kts | 8° |
| 2026-05-01 14:58 | 28.82375 | -81.34443 | 3136 ft | 131 kts | 9° |
| 2026-05-01 14:59 | 28.83278 | -81.34252 | 3127 ft | 132 kts | 8° |
| 2026-05-01 14:59 | 28.84178 | -81.34081 | 3132 ft | 131 kts | 9° |
| 2026-05-01 14:59 | 28.85078 | -81.33894 | 3142 ft | 132 kts | 8° |
| 2026-05-01 14:59 | 28.86000 | -81.33700 | 3127 ft | 135 kts | 9° |
| 2026-05-01 15:00 | 28.87812 | -81.33321 | 3136 ft | 128 kts | 8° |
| 2026-05-01 15:00 | 28.88681 | -81.33141 | 3128 ft | 125 kts | 9° |
| 2026-05-01 15:00 | 28.89534 | -81.32969 | 3135 ft | 125 kts | 9° |
| 2026-05-01 15:01 | 28.90383 | -81.32798 | 3137 ft | 122 kts | 9° |
| 2026-05-01 15:01 | 28.91206 | -81.32632 | 3136 ft | 118 kts | 9° |